createdAt,value
2023-01-31T00:00:25.953Z,7.57
2023-01-31T00:02:52.230Z,7.51
2023-01-31T00:05:18.792Z,7.26
2023-01-31T00:07:45.246Z,7.38
2023-01-31T00:10:11.523Z,7.49
2023-01-31T00:12:37.783Z,7.48
2023-01-31T00:15:04.047Z,8.06
2023-01-31T00:17:30.297Z,7.96
2023-01-31T00:19:56.647Z,8.51
2023-01-31T00:22:22.904Z,9.11
2023-01-31T00:24:49.177Z,9.60
2023-01-31T00:27:15.478Z,10.33
2023-01-31T00:29:41.737Z,11.91
2023-01-31T00:32:08.097Z,15.15
2023-01-31T00:34:34.768Z,16.57
2023-01-31T00:37:01.061Z,17.36
2023-01-31T00:39:27.321Z,16.06
2023-01-31T00:41:53.586Z,15.73
2023-01-31T00:44:19.870Z,15.71
2023-01-31T00:46:46.149Z,14.60
2023-01-31T00:49:12.460Z,13.00
2023-01-31T00:51:38.724Z,14.53
2023-01-31T00:54:04.986Z,16.41
2023-01-31T00:56:31.245Z,18.36
2023-01-31T00:58:57.541Z,18.41
2023-01-31T01:01:23.823Z,18.31
2023-01-31T01:03:50.103Z,18.06
2023-01-31T01:06:16.401Z,16.58
2023-01-31T01:08:42.675Z,17.13
2023-01-31T01:11:08.972Z,17.94
2023-01-31T01:13:35.347Z,18.46
2023-01-31T01:16:01.700Z,16.50
2023-01-31T01:18:27.983Z,14.38
2023-01-31T01:20:54.290Z,13.42
2023-01-31T01:23:20.600Z,12.47
2023-01-31T01:25:46.876Z,14.46
2023-01-31T01:28:13.172Z,14.29
2023-01-31T01:30:39.421Z,12.54
2023-01-31T01:33:05.668Z,11.68
2023-01-31T01:35:32.126Z,10.92
2023-01-31T01:37:58.373Z,10.02
2023-01-31T01:40:24.652Z,11.01
2023-01-31T01:42:50.905Z,11.17
2023-01-31T01:45:18.819Z,10.90
2023-01-31T01:47:46.374Z,10.80
2023-01-31T01:50:12.636Z,11.04
2023-01-31T01:52:38.879Z,10.44
2023-01-31T01:55:05.152Z,9.69
2023-01-31T01:57:31.410Z,9.26
2023-01-31T01:59:57.656Z,8.04
2023-01-31T02:02:23.911Z,7.55
2023-01-31T02:04:50.199Z,7.64
2023-01-31T02:07:16.572Z,7.92
2023-01-31T02:09:42.823Z,8.60
2023-01-31T02:12:09.085Z,8.90
2023-01-31T02:14:35.992Z,10.59
2023-01-31T02:17:02.334Z,10.58
2023-01-31T02:19:28.896Z,10.59
2023-01-31T02:21:55.222Z,10.86
2023-01-31T02:24:21.537Z,11.21
2023-01-31T02:26:47.842Z,11.47
2023-01-31T02:29:14.148Z,11.19
2023-01-31T02:31:40.489Z,10.37
2023-01-31T02:34:06.758Z,9.65
2023-01-31T02:36:33.008Z,9.75
2023-01-31T02:38:59.265Z,9.16
2023-01-31T02:41:25.498Z,8.93
2023-01-31T02:43:51.753Z,8.02
2023-01-31T02:46:18.037Z,7.71
2023-01-31T02:48:44.352Z,7.25
2023-01-31T02:51:10.600Z,7.19
2023-01-31T02:53:36.852Z,7.06
2023-01-31T02:56:03.101Z,7.25
2023-01-31T02:58:29.366Z,7.16
2023-01-31T03:00:55.631Z,8.98
2023-01-31T03:03:21.929Z,11.36
2023-01-31T03:05:48.188Z,10.73
2023-01-31T03:08:14.488Z,11.48
2023-01-31T03:10:40.746Z,11.11
2023-01-31T03:13:07.019Z,10.00
2023-01-31T03:15:33.282Z,11.02
2023-01-31T03:17:59.560Z,11.91
2023-01-31T03:20:25.836Z,12.58
2023-01-31T03:22:52.096Z,11.64
2023-01-31T03:25:18.878Z,12.28
2023-01-31T03:27:45.857Z,13.25
2023-01-31T03:30:12.111Z,13.20
2023-01-31T03:32:38.377Z,13.02
2023-01-31T03:35:04.681Z,12.57
2023-01-31T03:37:30.914Z,13.28
2023-01-31T03:39:57.186Z,12.06
2023-01-31T03:42:23.447Z,12.27
2023-01-31T03:44:49.711Z,11.95
2023-01-31T03:47:15.975Z,12.36
2023-01-31T03:49:42.231Z,11.36
2023-01-31T03:52:08.493Z,10.77
2023-01-31T03:54:34.764Z,10.93
2023-01-31T03:57:01.036Z,10.90
2023-01-31T03:59:27.380Z,9.92
2023-01-31T04:01:53.675Z,9.48
2023-01-31T04:04:19.957Z,9.48
2023-01-31T04:06:46.379Z,9.40
2023-01-31T04:09:12.990Z,9.28
2023-01-31T04:11:39.284Z,9.41
2023-01-31T04:14:05.604Z,8.81
2023-01-31T04:16:32.191Z,8.66
2023-01-31T04:18:58.437Z,8.82
2023-01-31T04:21:24.693Z,8.53
2023-01-31T04:23:50.964Z,8.35
2023-01-31T04:26:17.268Z,8.15
2023-01-31T04:28:43.551Z,8.26
2023-01-31T04:31:09.866Z,7.76
2023-01-31T04:33:36.678Z,8.29
2023-01-31T04:36:02.949Z,8.59
2023-01-31T04:38:29.249Z,8.72
2023-01-31T04:40:55.501Z,8.51
2023-01-31T04:43:21.746Z,9.28
2023-01-31T04:45:48.020Z,9.66
2023-01-31T04:48:14.283Z,9.78
2023-01-31T04:50:40.556Z,10.19
2023-01-31T04:53:07.184Z,10.77
2023-01-31T04:55:33.439Z,10.15
2023-01-31T04:57:59.694Z,10.63
2023-01-31T05:00:25.961Z,10.39
2023-01-31T05:02:52.277Z,10.96
2023-01-31T05:05:18.719Z,11.04
2023-01-31T05:07:45.104Z,12.21
2023-01-31T05:10:11.374Z,11.92
2023-01-31T05:12:37.621Z,11.82
2023-01-31T05:15:03.872Z,11.40
2023-01-31T05:17:30.132Z,11.96
2023-01-31T05:19:56.409Z,12.03
2023-01-31T05:22:22.685Z,11.71
2023-01-31T05:24:48.966Z,11.55
2023-01-31T05:27:15.221Z,12.32
2023-01-31T05:29:41.508Z,11.84
2023-01-31T05:32:07.821Z,12.19
2023-01-31T05:34:34.133Z,12.10
2023-01-31T05:37:00.431Z,12.44
2023-01-31T05:39:26.735Z,12.28
2023-01-31T05:41:53.023Z,12.08
2023-01-31T05:44:19.288Z,12.21
2023-01-31T05:46:45.534Z,12.69
2023-01-31T05:49:11.777Z,13.98
2023-01-31T05:51:38.066Z,15.14
2023-01-31T05:54:04.338Z,15.74
2023-01-31T05:56:30.960Z,16.14
2023-01-31T05:58:57.256Z,16.72
2023-01-31T06:01:23.528Z,16.75
2023-01-31T06:03:49.822Z,16.68
2023-01-31T06:06:16.119Z,16.94
2023-01-31T06:08:42.401Z,16.13
2023-01-31T06:11:08.696Z,15.06
2023-01-31T06:13:34.976Z,14.63
2023-01-31T06:16:01.231Z,14.76
2023-01-31T06:18:27.483Z,14.98
2023-01-31T06:20:53.732Z,16.04
2023-01-31T06:23:20.004Z,17.34
2023-01-31T06:25:46.267Z,17.64
2023-01-31T06:28:12.654Z,18.42
2023-01-31T06:30:39.019Z,18.87
2023-01-31T06:33:05.308Z,19.14
2023-01-31T06:35:31.744Z,19.27
2023-01-31T06:37:58.205Z,18.14
2023-01-31T06:40:24.491Z,18.44
2023-01-31T06:42:50.765Z,18.63
2023-01-31T06:45:17.052Z,18.37
2023-01-31T06:47:43.308Z,18.56
2023-01-31T06:50:09.608Z,18.70
2023-01-31T06:52:36.037Z,18.71
2023-01-31T06:55:02.336Z,18.38
2023-01-31T06:57:28.624Z,18.84
2023-01-31T06:59:54.895Z,17.90
2023-01-31T07:02:21.165Z,16.64
2023-01-31T07:04:47.489Z,17.26
2023-01-31T07:07:13.789Z,16.39
2023-01-31T07:09:40.056Z,17.37
2023-01-31T07:12:06.321Z,17.16
2023-01-31T07:14:32.573Z,16.54
2023-01-31T07:16:58.845Z,15.81
2023-01-31T07:19:25.125Z,15.59
2023-01-31T07:21:51.387Z,15.85
2023-01-31T07:24:17.664Z,16.50
2023-01-31T07:26:44.040Z,17.18
2023-01-31T07:29:10.360Z,17.52
2023-01-31T07:31:36.666Z,17.39
2023-01-31T07:34:02.946Z,18.45
2023-01-31T07:36:29.864Z,18.54
2023-01-31T07:38:56.208Z,17.71
2023-01-31T07:41:22.452Z,17.46
2023-01-31T07:43:49.095Z,18.90
2023-01-31T07:46:15.445Z,18.99
2023-01-31T07:48:41.735Z,17.14
2023-01-31T07:51:07.997Z,16.71
2023-01-31T07:53:34.348Z,17.71
2023-01-31T07:56:00.614Z,18.16
2023-01-31T07:58:26.899Z,17.25
2023-01-31T08:00:53.164Z,17.58
2023-01-31T08:03:19.458Z,17.63
2023-01-31T08:05:45.723Z,17.05
2023-01-31T08:08:12.003Z,18.25
2023-01-31T08:10:38.278Z,19.99
2023-01-31T08:13:04.574Z,19.85
2023-01-31T08:15:30.845Z,17.63
2023-01-31T08:17:57.100Z,17.24
2023-01-31T08:20:23.379Z,17.40
2023-01-31T08:22:49.641Z,17.50
2023-01-31T08:25:15.925Z,17.85
2023-01-31T08:27:42.232Z,17.95
2023-01-31T08:30:08.508Z,18.30
2023-01-31T08:32:34.794Z,18.20
2023-01-31T08:35:01.077Z,16.87
2023-01-31T08:37:27.352Z,16.86
2023-01-31T08:39:53.676Z,16.54
2023-01-31T08:42:19.993Z,16.83
2023-01-31T08:44:46.290Z,16.92
2023-01-31T08:47:12.565Z,16.58
2023-01-31T08:49:38.865Z,16.23
2023-01-31T08:52:05.153Z,16.01
2023-01-31T08:54:31.419Z,16.55
2023-01-31T08:56:57.681Z,16.54
2023-01-31T08:59:23.945Z,15.88
2023-01-31T09:01:50.227Z,14.28
2023-01-31T09:04:16.552Z,13.85
2023-01-31T09:06:42.856Z,14.12
2023-01-31T09:09:09.151Z,14.42
2023-01-31T09:11:35.408Z,14.30
2023-01-31T09:14:01.659Z,14.00
2023-01-31T09:16:27.989Z,14.31
2023-01-31T09:18:54.360Z,14.09
2023-01-31T09:21:20.654Z,14.42
2023-01-31T09:23:46.934Z,13.18
2023-01-31T09:26:13.319Z,12.40
2023-01-31T09:28:39.629Z,11.52
2023-01-31T09:31:06.053Z,12.75
2023-01-31T09:33:32.411Z,12.02
2023-01-31T09:35:58.673Z,11.61
2023-01-31T09:38:24.945Z,11.78
2023-01-31T09:40:51.197Z,12.26
2023-01-31T09:43:17.460Z,11.19
2023-01-31T09:45:43.766Z,11.69
2023-01-31T09:48:10.011Z,11.84
2023-01-31T09:50:36.666Z,10.46
2023-01-31T09:53:02.986Z,10.46
2023-01-31T09:55:29.553Z,10.26
2023-01-31T09:57:55.838Z,10.34
2023-01-31T10:00:22.310Z,10.41
2023-01-31T10:02:48.685Z,10.33
2023-01-31T10:05:14.954Z,10.54
2023-01-31T10:07:41.253Z,10.36
2023-01-31T10:10:07.524Z,10.16
2023-01-31T10:12:33.812Z,10.05
2023-01-31T10:15:00.146Z,10.50
2023-01-31T10:17:26.428Z,10.92
2023-01-31T10:19:52.713Z,10.89
2023-01-31T10:22:18.995Z,10.94
2023-01-31T10:24:45.268Z,10.97
2023-01-31T10:27:11.526Z,11.02
2023-01-31T10:29:37.810Z,10.94
2023-01-31T10:32:04.107Z,10.77
2023-01-31T10:34:30.463Z,11.55
2023-01-31T10:36:56.734Z,11.31
2023-01-31T10:39:22.987Z,11.02
2023-01-31T10:41:49.247Z,11.08
2023-01-31T10:44:15.521Z,11.46
2023-01-31T10:46:42.905Z,11.30
2023-01-31T10:49:09.153Z,12.49
2023-01-31T10:51:35.415Z,14.65
2023-01-31T10:54:01.698Z,15.84
2023-01-31T10:56:27.965Z,18.40
2023-01-31T10:58:54.212Z,18.34
2023-01-31T11:01:20.549Z,18.43
2023-01-31T11:03:46.879Z,17.50
2023-01-31T11:06:13.168Z,18.28
2023-01-31T11:08:39.433Z,17.97
2023-01-31T11:11:05.728Z,18.39
2023-01-31T11:13:32.004Z,17.26
2023-01-31T11:15:58.399Z,15.96
2023-01-31T11:18:24.652Z,15.26
2023-01-31T11:20:50.913Z,14.46
2023-01-31T11:23:17.206Z,14.95
2023-01-31T11:25:43.476Z,16.03
2023-01-31T11:28:09.747Z,16.38
2023-01-31T11:30:36.053Z,16.04
2023-01-31T11:33:02.334Z,17.18
2023-01-31T11:35:28.598Z,17.53
2023-01-31T11:37:54.875Z,15.95
2023-01-31T11:40:21.542Z,15.34
2023-01-31T11:42:47.975Z,16.14
2023-01-31T11:45:14.227Z,14.97
2023-01-31T11:47:40.532Z,14.32
2023-01-31T11:50:06.819Z,15.56
2023-01-31T11:52:33.088Z,15.52
2023-01-31T11:54:59.353Z,15.22
2023-01-31T11:57:25.678Z,15.39
2023-01-31T11:59:51.966Z,16.42
2023-01-31T12:02:18.264Z,16.27
2023-01-31T12:04:44.546Z,16.03
2023-01-31T12:07:10.797Z,12.49
2023-01-31T12:09:37.056Z,14.02
2023-01-31T12:12:04.363Z,15.23
2023-01-31T12:14:31.588Z,12.99
2023-01-31T12:16:57.883Z,11.81
2023-01-31T12:19:24.205Z,11.46
2023-01-31T12:21:50.458Z,10.23
2023-01-31T12:24:16.722Z,8.87
2023-01-31T12:26:43.064Z,8.35
2023-01-31T12:29:10.919Z,10.19
2023-01-31T12:31:38.268Z,11.08
2023-01-31T12:34:04.546Z,11.59
2023-01-31T12:36:30.840Z,10.75
2023-01-31T12:38:57.102Z,10.55
2023-01-31T12:41:23.372Z,10.41
2023-01-31T12:43:49.641Z,9.74
2023-01-31T12:46:15.985Z,9.77
2023-01-31T12:48:42.284Z,10.05
2023-01-31T12:51:08.543Z,9.00
2023-01-31T12:53:34.809Z,8.80
2023-01-31T12:56:01.070Z,8.80
2023-01-31T12:58:27.359Z,8.08
2023-01-31T13:00:53.621Z,6.98
2023-01-31T13:03:19.889Z,6.81
2023-01-31T13:05:46.140Z,6.08
2023-01-31T13:08:13.140Z,5.48
2023-01-31T13:10:40.577Z,4.38
2023-01-31T13:13:06.860Z,4.32
2023-01-31T13:15:33.129Z,3.91
2023-01-31T13:17:59.417Z,4.13
2023-01-31T13:20:25.715Z,3.82
2023-01-31T13:22:51.958Z,3.91
2023-01-31T13:25:18.358Z,3.71
2023-01-31T13:27:44.740Z,3.48
2023-01-31T13:30:10.990Z,3.84
2023-01-31T13:32:37.299Z,4.25
2023-01-31T13:35:03.553Z,4.35
2023-01-31T13:37:29.790Z,4.83
2023-01-31T13:39:56.047Z,5.28
2023-01-31T13:42:22.330Z,5.55
2023-01-31T13:44:48.632Z,4.99
2023-01-31T13:47:14.906Z,5.86
2023-01-31T13:49:41.175Z,6.34
2023-01-31T13:52:07.521Z,6.67
2023-01-31T13:54:33.753Z,7.69
2023-01-31T13:57:00.009Z,7.88
2023-01-31T13:59:26.265Z,8.28
2023-01-31T14:01:52.683Z,8.66
2023-01-31T14:04:19.017Z,8.62
2023-01-31T14:06:45.271Z,8.55
2023-01-31T14:09:11.541Z,9.19
2023-01-31T14:11:37.808Z,9.23
2023-01-31T14:14:04.095Z,9.20
2023-01-31T14:16:30.388Z,9.11
2023-01-31T14:18:56.711Z,9.24
2023-01-31T14:21:23.019Z,10.05
2023-01-31T14:23:49.311Z,10.25
2023-01-31T14:26:15.576Z,9.84
2023-01-31T14:28:41.855Z,10.21
2023-01-31T14:31:08.126Z,9.80
2023-01-31T14:33:34.507Z,10.01
2023-01-31T14:36:00.781Z,9.84
2023-01-31T14:38:27.034Z,10.34
2023-01-31T14:40:53.317Z,10.46
2023-01-31T14:43:19.596Z,10.52
2023-01-31T14:45:45.936Z,10.97
2023-01-31T14:48:12.245Z,11.01
2023-01-31T14:50:38.509Z,11.27
2023-01-31T14:53:04.785Z,11.86
2023-01-31T14:55:31.047Z,12.12
2023-01-31T14:57:57.304Z,12.29
2023-01-31T15:00:23.563Z,12.42
2023-01-31T15:02:49.893Z,13.43
2023-01-31T15:05:16.310Z,13.37
2023-01-31T15:07:42.581Z,13.58
2023-01-31T15:10:08.848Z,13.79
2023-01-31T15:12:35.097Z,13.80
2023-01-31T15:15:01.368Z,13.47
2023-01-31T15:17:36.468Z,14.03
2023-01-31T15:20:04.012Z,13.83
2023-01-31T15:22:30.353Z,13.81
2023-01-31T15:24:56.718Z,13.65
2023-01-31T15:27:22.985Z,13.97
2023-01-31T15:29:52.052Z,14.80
2023-01-31T15:32:18.349Z,15.14
2023-01-31T15:34:44.632Z,15.60
2023-01-31T15:37:10.920Z,16.24
2023-01-31T15:39:37.203Z,16.55
2023-01-31T15:42:03.454Z,15.94
2023-01-31T15:44:29.753Z,15.68
2023-01-31T15:46:56.040Z,15.40
2023-01-31T15:49:37.731Z,16.62
2023-01-31T15:52:05.139Z,17.23
2023-01-31T15:54:31.405Z,17.89
2023-01-31T15:56:57.703Z,18.40
2023-01-31T15:59:24.004Z,18.70
2023-01-31T16:01:50.272Z,17.52
2023-01-31T16:04:16.543Z,18.22
2023-01-31T16:06:42.798Z,17.06
2023-01-31T16:09:09.079Z,15.91
2023-01-31T16:11:35.339Z,15.44
2023-01-31T16:14:01.613Z,15.67
2023-01-31T16:16:27.943Z,15.18
2023-01-31T16:18:54.223Z,15.08
2023-01-31T16:21:20.501Z,14.86
2023-01-31T16:23:46.785Z,15.35
2023-01-31T16:26:13.155Z,15.24
2023-01-31T16:28:39.476Z,14.16
2023-01-31T16:31:05.850Z,14.66
2023-01-31T16:33:32.193Z,14.54
2023-01-31T16:36:11.871Z,15.43
2023-01-31T16:38:40.114Z,15.72
2023-01-31T16:41:06.385Z,15.89
2023-01-31T16:43:32.719Z,16.16
2023-01-31T16:45:59.080Z,15.42
2023-01-31T16:48:25.400Z,14.81
2023-01-31T16:50:51.662Z,14.38
2023-01-31T16:53:17.935Z,14.14
2023-01-31T16:55:44.210Z,13.49
2023-01-31T16:58:10.466Z,13.20
2023-01-31T17:00:36.744Z,13.54
2023-01-31T17:03:03.084Z,14.30
2023-01-31T17:05:29.372Z,13.49
2023-01-31T17:07:55.637Z,14.17
2023-01-31T17:10:22.240Z,14.00
2023-01-31T17:12:48.699Z,15.58
2023-01-31T17:15:14.989Z,14.69
2023-01-31T17:17:41.278Z,15.27
2023-01-31T17:20:07.553Z,15.93
2023-01-31T17:22:33.834Z,16.29
2023-01-31T17:25:00.127Z,16.05
2023-01-31T17:27:26.451Z,16.31
2023-01-31T17:29:52.777Z,15.84
2023-01-31T17:32:19.065Z,17.46
2023-01-31T17:34:45.344Z,18.35
2023-01-31T17:37:12.980Z,18.94
2023-01-31T17:39:40.549Z,20.00
2023-01-31T17:42:06.819Z,20.21
2023-01-31T17:44:33.091Z,20.15
2023-01-31T17:46:59.917Z,20.68
2023-01-31T17:49:27.330Z,21.54
2023-01-31T17:51:53.852Z,20.71
2023-01-31T17:54:20.155Z,19.82
2023-01-31T17:56:46.406Z,18.77
2023-01-31T17:59:21.789Z,18.54
2023-01-31T18:01:53.163Z,18.42
2023-01-31T18:04:19.481Z,19.60
2023-01-31T18:06:45.751Z,18.67
2023-01-31T18:09:12.018Z,19.07
2023-01-31T18:11:38.272Z,19.47
2023-01-31T18:14:04.553Z,19.16
2023-01-31T18:16:30.884Z,19.81
2023-01-31T18:18:57.207Z,19.31
2023-01-31T18:21:23.494Z,19.58
2023-01-31T18:23:49.793Z,19.97
2023-01-31T18:26:16.071Z,19.72
2023-01-31T18:28:42.388Z,21.06
2023-01-31T18:31:08.698Z,21.43
2023-01-31T18:33:35.005Z,21.21
2023-01-31T18:36:01.344Z,20.39
2023-01-31T18:38:27.627Z,20.57
2023-01-31T18:40:53.891Z,20.08
2023-01-31T18:43:20.180Z,20.46
2023-01-31T18:45:46.481Z,20.74
2023-01-31T18:48:12.761Z,31.18
2023-01-31T18:50:39.018Z,34.51
2023-01-31T18:53:05.264Z,27.91
2023-01-31T18:55:31.535Z,25.04
2023-01-31T18:57:57.814Z,25.41
2023-01-31T19:00:24.095Z,24.38
2023-01-31T19:02:50.379Z,25.59
2023-01-31T19:05:16.663Z,25.07
2023-01-31T19:07:42.971Z,23.80
2023-01-31T19:10:09.249Z,24.38
2023-01-31T19:12:35.516Z,23.76
2023-01-31T19:15:01.862Z,24.76
2023-01-31T19:17:28.133Z,29.59
2023-01-31T19:19:54.393Z,26.00
2023-01-31T19:22:20.698Z,23.32
2023-01-31T19:24:46.994Z,23.79
2023-01-31T19:27:13.297Z,23.53
2023-01-31T19:29:39.930Z,24.90
2023-01-31T19:32:06.266Z,23.91
2023-01-31T19:34:32.531Z,23.27
2023-01-31T19:36:58.805Z,24.47
2023-01-31T19:39:25.086Z,25.97
2023-01-31T19:41:51.376Z,26.65
2023-01-31T19:44:17.648Z,25.72
2023-01-31T19:46:44.021Z,25.45
2023-01-31T19:49:10.431Z,25.47
2023-01-31T19:51:36.701Z,22.95
2023-01-31T19:54:03.012Z,22.18
2023-01-31T19:56:29.335Z,22.38
2023-01-31T19:58:55.614Z,22.82
2023-01-31T20:01:21.909Z,22.78
2023-01-31T20:03:48.273Z,23.44
2023-01-31T20:06:14.577Z,23.86
2023-01-31T20:08:40.909Z,23.04
2023-01-31T20:11:07.218Z,23.44
2023-01-31T20:13:33.547Z,23.94
2023-01-31T20:15:59.819Z,23.35
2023-01-31T20:18:26.105Z,22.52
2023-01-31T20:20:52.365Z,22.59
2023-01-31T20:23:18.651Z,22.17
2023-01-31T20:25:44.917Z,22.36
2023-01-31T20:28:11.203Z,21.74
2023-01-31T20:30:37.578Z,21.31
2023-01-31T20:33:03.871Z,21.18
2023-01-31T20:35:30.145Z,20.95
2023-01-31T20:37:56.437Z,21.26
2023-01-31T20:40:23.019Z,20.86
2023-01-31T20:42:49.609Z,22.08
2023-01-31T20:45:16.032Z,21.55
2023-01-31T20:47:42.435Z,21.37
2023-01-31T20:50:08.757Z,21.76
2023-01-31T20:52:35.081Z,21.47
2023-01-31T20:55:01.399Z,21.54
2023-01-31T20:57:27.669Z,21.41
2023-01-31T20:59:53.987Z,20.53
2023-01-31T21:02:20.425Z,21.44
2023-01-31T21:04:46.714Z,21.03
2023-01-31T21:07:13.004Z,21.20
2023-01-31T21:09:39.319Z,21.52
2023-01-31T21:12:05.601Z,21.11
2023-01-31T21:14:31.884Z,20.86
2023-01-31T21:16:58.136Z,21.02
2023-01-31T21:19:24.389Z,21.06
2023-01-31T21:21:50.664Z,22.67
2023-01-31T21:24:16.945Z,22.30
2023-01-31T21:26:43.312Z,22.69
2023-01-31T21:29:09.653Z,22.08
2023-01-31T21:31:36.010Z,21.59
2023-01-31T21:34:02.419Z,22.70
2023-01-31T21:36:28.690Z,24.53
2023-01-31T21:38:54.982Z,24.28
2023-01-31T21:41:21.264Z,23.65
2023-01-31T21:43:47.541Z,22.90
2023-01-31T21:46:13.911Z,22.61
2023-01-31T21:48:40.224Z,22.84
2023-01-31T21:51:06.484Z,22.34
2023-01-31T21:53:32.818Z,23.14
2023-01-31T21:55:59.087Z,25.53
2023-01-31T21:58:25.375Z,23.34
2023-01-31T22:00:51.667Z,23.32
2023-01-31T22:03:17.945Z,23.23
2023-01-31T22:05:44.360Z,23.74
2023-01-31T22:08:10.687Z,24.59
2023-01-31T22:10:36.986Z,24.68
2023-01-31T22:13:03.256Z,24.19
2023-01-31T22:15:29.563Z,24.20
2023-01-31T22:17:55.821Z,23.59
2023-01-31T22:20:22.515Z,24.63
2023-01-31T22:22:48.985Z,24.24
2023-01-31T22:25:15.255Z,24.81
2023-01-31T22:27:41.551Z,24.22
2023-01-31T22:30:16.189Z,23.91
2023-01-31T22:32:54.068Z,23.72
2023-01-31T22:35:20.367Z,26.15
2023-01-31T22:37:46.633Z,26.88
2023-01-31T22:40:12.905Z,26.57
2023-01-31T22:42:39.179Z,25.81
2023-01-31T22:45:05.459Z,25.33
2023-01-31T22:47:31.737Z,25.00
2023-01-31T22:49:58.051Z,24.75
2023-01-31T22:52:24.321Z,25.38
2023-01-31T22:54:50.591Z,24.68
2023-01-31T22:57:16.874Z,24.12
2023-01-31T22:59:43.148Z,24.99
2023-01-31T23:02:09.456Z,24.45
2023-01-31T23:04:35.790Z,25.10
2023-01-31T23:07:02.168Z,25.48
2023-01-31T23:09:28.446Z,24.78
2023-01-31T23:11:54.751Z,23.90
2023-01-31T23:14:21.027Z,23.92
2023-01-31T23:16:47.368Z,23.88
2023-01-31T23:19:13.663Z,23.17
2023-01-31T23:21:39.996Z,22.96
2023-01-31T23:24:06.271Z,23.71
2023-01-31T23:26:32.596Z,22.59
2023-01-31T23:28:58.897Z,23.12
2023-01-31T23:31:25.305Z,23.04
2023-01-31T23:33:51.707Z,24.08
2023-01-31T23:36:17.964Z,24.41
2023-01-31T23:38:44.296Z,24.29
2023-01-31T23:41:10.561Z,24.26
2023-01-31T23:43:36.820Z,24.09
2023-01-31T23:46:03.133Z,23.58
2023-01-31T23:48:29.500Z,23.95
2023-01-31T23:50:55.786Z,23.42
2023-01-31T23:53:22.060Z,23.47
2023-01-31T23:55:48.337Z,23.53
2023-01-31T23:58:14.632Z,23.53
